sensor_id;sensor_type;location;lat;lon;timestamp;P1;durP1;ratioP1;P2;durP2;ratioP2
19163;SDS011;9714;51.208;4.242;2023-07-16T00:01:02;11.63;;;3.07;;
19163;SDS011;9714;51.208;4.242;2023-07-16T00:03:29;15.27;;;3.37;;
19163;SDS011;9714;51.208;4.242;2023-07-16T00:05:58;12.57;;;3.60;;
19163;SDS011;9714;51.208;4.242;2023-07-16T00:08:25;16.40;;;3.17;;
19163;SDS011;9714;51.208;4.242;2023-07-16T00:10:52;16.03;;;2.80;;
19163;SDS011;9714;51.208;4.242;2023-07-16T00:13:19;12.37;;;3.07;;
19163;SDS011;9714;51.208;4.242;2023-07-16T00:15:46;15.50;;;3.30;;
19163;SDS011;9714;51.208;4.242;2023-07-16T00:18:13;16.93;;;4.10;;
19163;SDS011;9714;51.208;4.242;2023-07-16T00:20:40;12.30;;;2.80;;
19163;SDS011;9714;51.208;4.242;2023-07-16T00:23:09;14.37;;;2.90;;
19163;SDS011;9714;51.208;4.242;2023-07-16T00:25:36;14.87;;;3.10;;
19163;SDS011;9714;51.208;4.242;2023-07-16T00:28:03;10.33;;;2.77;;
19163;SDS011;9714;51.208;4.242;2023-07-16T00:30:30;13.47;;;3.40;;
19163;SDS011;9714;51.208;4.242;2023-07-16T00:32:57;12.33;;;3.33;;
19163;SDS011;9714;51.208;4.242;2023-07-16T00:35:24;17.50;;;3.53;;
19163;SDS011;9714;51.208;4.242;2023-07-16T00:37:51;19.07;;;3.90;;
19163;SDS011;9714;51.208;4.242;2023-07-16T00:40:19;13.17;;;2.77;;
19163;SDS011;9714;51.208;4.242;2023-07-16T00:42:46;15.97;;;3.30;;
19163;SDS011;9714;51.208;4.242;2023-07-16T00:45:14;12.47;;;3.10;;
19163;SDS011;9714;51.208;4.242;2023-07-16T00:47:41;14.37;;;3.60;;
19163;SDS011;9714;51.208;4.242;2023-07-16T00:50:11;22.77;;;4.00;;
19163;SDS011;9714;51.208;4.242;2023-07-16T00:52:39;12.87;;;3.53;;
19163;SDS011;9714;51.208;4.242;2023-07-16T00:55:07;12.27;;;2.77;;
19163;SDS011;9714;51.208;4.242;2023-07-16T00:57:36;16.00;;;3.27;;
19163;SDS011;9714;51.208;4.242;2023-07-16T01:00:04;11.93;;;2.97;;
19163;SDS011;9714;51.208;4.242;2023-07-16T01:02:32;18.37;;;4.20;;
19163;SDS011;9714;51.208;4.242;2023-07-16T01:05:00;20.97;;;3.63;;
19163;SDS011;9714;51.208;4.242;2023-07-16T01:07:27;12.33;;;3.23;;
19163;SDS011;9714;51.208;4.242;2023-07-16T01:09:56;17.97;;;3.80;;
19163;SDS011;9714;51.208;4.242;2023-07-16T01:12:25;20.83;;;3.60;;
19163;SDS011;9714;51.208;4.242;2023-07-16T01:14:56;11.90;;;3.10;;
19163;SDS011;9714;51.208;4.242;2023-07-16T01:17:24;16.40;;;3.60;;
19163;SDS011;9714;51.208;4.242;2023-07-16T01:19:51;18.40;;;3.80;;
19163;SDS011;9714;51.208;4.242;2023-07-16T01:22:25;13.67;;;3.47;;
19163;SDS011;9714;51.208;4.242;2023-07-16T01:25:07;13.53;;;3.10;;
19163;SDS011;9714;51.208;4.242;2023-07-16T01:27:46;12.33;;;3.33;;
19163;SDS011;9714;51.208;4.242;2023-07-16T01:30:27;24.13;;;3.80;;
19163;SDS011;9714;51.208;4.242;2023-07-16T01:32:55;18.07;;;3.57;;
19163;SDS011;9714;51.208;4.242;2023-07-16T01:35:23;11.27;;;2.70;;
19163;SDS011;9714;51.208;4.242;2023-07-16T01:37:50;12.73;;;3.33;;
19163;SDS011;9714;51.208;4.242;2023-07-16T01:40:17;13.07;;;3.07;;
19163;SDS011;9714;51.208;4.242;2023-07-16T01:42:45;13.13;;;3.00;;
19163;SDS011;9714;51.208;4.242;2023-07-16T01:45:12;21.87;;;3.33;;
19163;SDS011;9714;51.208;4.242;2023-07-16T01:47:44;12.60;;;3.10;;
19163;SDS011;9714;51.208;4.242;2023-07-16T01:50:19;16.73;;;4.00;;
19163;SDS011;9714;51.208;4.242;2023-07-16T01:52:46;14.07;;;3.70;;
19163;SDS011;9714;51.208;4.242;2023-07-16T01:55:13;12.03;;;3.17;;
19163;SDS011;9714;51.208;4.242;2023-07-16T01:57:40;14.10;;;3.40;;
19163;SDS011;9714;51.208;4.242;2023-07-16T02:00:07;12.03;;;3.63;;
19163;SDS011;9714;51.208;4.242;2023-07-16T02:02:35;13.00;;;3.67;;
19163;SDS011;9714;51.208;4.242;2023-07-16T02:05:04;13.20;;;3.70;;
19163;SDS011;9714;51.208;4.242;2023-07-16T02:07:31;14.77;;;3.77;;
19163;SDS011;9714;51.208;4.242;2023-07-16T02:09:58;12.03;;;4.07;;
19163;SDS011;9714;51.208;4.242;2023-07-16T02:12:25;11.57;;;3.40;;
19163;SDS011;9714;51.208;4.242;2023-07-16T02:14:53;15.00;;;4.00;;
19163;SDS011;9714;51.208;4.242;2023-07-16T02:17:20;14.50;;;3.60;;
19163;SDS011;9714;51.208;4.242;2023-07-16T02:19:47;11.73;;;3.43;;
19163;SDS011;9714;51.208;4.242;2023-07-16T02:22:15;14.53;;;3.87;;
19163;SDS011;9714;51.208;4.242;2023-07-16T02:24:42;17.37;;;4.00;;
19163;SDS011;9714;51.208;4.242;2023-07-16T02:27:09;10.57;;;3.40;;
19163;SDS011;9714;51.208;4.242;2023-07-16T02:29:36;11.43;;;3.67;;
19163;SDS011;9714;51.208;4.242;2023-07-16T02:32:04;10.83;;;3.10;;
19163;SDS011;9714;51.208;4.242;2023-07-16T02:34:31;10.70;;;3.17;;
19163;SDS011;9714;51.208;4.242;2023-07-16T02:36:58;16.90;;;3.60;;
19163;SDS011;9714;51.208;4.242;2023-07-16T02:39:27;15.37;;;4.17;;
19163;SDS011;9714;51.208;4.242;2023-07-16T02:41:54;13.50;;;4.10;;
19163;SDS011;9714;51.208;4.242;2023-07-16T02:44:21;13.13;;;4.20;;
19163;SDS011;9714;51.208;4.242;2023-07-16T02:46:47;14.67;;;4.10;;
19163;SDS011;9714;51.208;4.242;2023-07-16T02:49:14;14.53;;;3.97;;
19163;SDS011;9714;51.208;4.242;2023-07-16T02:51:41;12.17;;;4.10;;
19163;SDS011;9714;51.208;4.242;2023-07-16T02:54:10;17.07;;;4.90;;
19163;SDS011;9714;51.208;4.242;2023-07-16T02:56:39;15.83;;;4.77;;
19163;SDS011;9714;51.208;4.242;2023-07-16T02:59:07;11.87;;;4.40;;
19163;SDS011;9714;51.208;4.242;2023-07-16T03:01:34;11.57;;;3.73;;
19163;SDS011;9714;51.208;4.242;2023-07-16T03:04:01;13.47;;;4.53;;
19163;SDS011;9714;51.208;4.242;2023-07-16T03:06:27;12.47;;;4.07;;
19163;SDS011;9714;51.208;4.242;2023-07-16T03:08:56;10.83;;;3.90;;
19163;SDS011;9714;51.208;4.242;2023-07-16T03:11:23;22.13;;;5.10;;
19163;SDS011;9714;51.208;4.242;2023-07-16T03:13:52;16.03;;;4.73;;
19163;SDS011;9714;51.208;4.242;2023-07-16T03:16:19;13.43;;;4.43;;
19163;SDS011;9714;51.208;4.242;2023-07-16T03:18:46;21.30;;;5.37;;
19163;SDS011;9714;51.208;4.242;2023-07-16T03:21:13;14.27;;;4.30;;
19163;SDS011;9714;51.208;4.242;2023-07-16T03:23:40;16.00;;;4.67;;
19163;SDS011;9714;51.208;4.242;2023-07-16T03:26:07;16.40;;;4.20;;
19163;SDS011;9714;51.208;4.242;2023-07-16T03:28:34;15.40;;;4.40;;
19163;SDS011;9714;51.208;4.242;2023-07-16T03:31:02;15.30;;;4.37;;
19163;SDS011;9714;51.208;4.242;2023-07-16T03:33:29;18.87;;;5.30;;
19163;SDS011;9714;51.208;4.242;2023-07-16T03:35:56;13.10;;;4.23;;
19163;SDS011;9714;51.208;4.242;2023-07-16T03:38:23;15.10;;;4.37;;
19163;SDS011;9714;51.208;4.242;2023-07-16T03:40:50;23.37;;;5.40;;
19163;SDS011;9714;51.208;4.242;2023-07-16T03:43:17;14.10;;;4.77;;
19163;SDS011;9714;51.208;4.242;2023-07-16T03:45:45;15.13;;;4.67;;
19163;SDS011;9714;51.208;4.242;2023-07-16T03:48:13;19.27;;;5.07;;
19163;SDS011;9714;51.208;4.242;2023-07-16T03:50:40;16.47;;;5.30;;
19163;SDS011;9714;51.208;4.242;2023-07-16T03:53:07;14.47;;;4.77;;
19163;SDS011;9714;51.208;4.242;2023-07-16T03:55:34;14.83;;;4.63;;
19163;SDS011;9714;51.208;4.242;2023-07-16T03:58:01;11.13;;;4.93;;
19163;SDS011;9714;51.208;4.242;2023-07-16T04:00:28;15.23;;;5.30;;
19163;SDS011;9714;51.208;4.242;2023-07-16T04:02:55;19.00;;;5.10;;
19163;SDS011;9714;51.208;4.242;2023-07-16T04:05:23;16.83;;;5.03;;
19163;SDS011;9714;51.208;4.242;2023-07-16T04:07:52;16.20;;;5.70;;
19163;SDS011;9714;51.208;4.242;2023-07-16T04:10:19;17.20;;;5.17;;
19163;SDS011;9714;51.208;4.242;2023-07-16T04:12:46;15.87;;;4.70;;
19163;SDS011;9714;51.208;4.242;2023-07-16T04:15:13;20.40;;;4.63;;
19163;SDS011;9714;51.208;4.242;2023-07-16T04:17:40;18.77;;;6.13;;
19163;SDS011;9714;51.208;4.242;2023-07-16T04:20:07;15.20;;;5.17;;
19163;SDS011;9714;51.208;4.242;2023-07-16T04:22:36;14.23;;;5.53;;
19163;SDS011;9714;51.208;4.242;2023-07-16T04:25:03;19.40;;;5.30;;
19163;SDS011;9714;51.208;4.242;2023-07-16T04:27:31;18.60;;;5.70;;
19163;SDS011;9714;51.208;4.242;2023-07-16T04:30:00;13.47;;;5.90;;
19163;SDS011;9714;51.208;4.242;2023-07-16T04:32:27;19.57;;;5.33;;
19163;SDS011;9714;51.208;4.242;2023-07-16T04:34:54;13.77;;;4.50;;
19163;SDS011;9714;51.208;4.242;2023-07-16T04:37:21;16.70;;;5.30;;
19163;SDS011;9714;51.208;4.242;2023-07-16T04:39:49;13.83;;;5.63;;
19163;SDS011;9714;51.208;4.242;2023-07-16T04:42:16;16.17;;;5.40;;
19163;SDS011;9714;51.208;4.242;2023-07-16T04:44:43;17.00;;;5.90;;
19163;SDS011;9714;51.208;4.242;2023-07-16T04:47:10;17.77;;;7.13;;
19163;SDS011;9714;51.208;4.242;2023-07-16T04:49:37;21.37;;;6.47;;
19163;SDS011;9714;51.208;4.242;2023-07-16T04:52:05;16.73;;;5.40;;
19163;SDS011;9714;51.208;4.242;2023-07-16T04:54:34;19.50;;;5.87;;
19163;SDS011;9714;51.208;4.242;2023-07-16T04:57:05;18.27;;;5.87;;
19163;SDS011;9714;51.208;4.242;2023-07-16T04:59:33;16.07;;;5.93;;
19163;SDS011;9714;51.208;4.242;2023-07-16T05:02:01;19.13;;;6.17;;
19163;SDS011;9714;51.208;4.242;2023-07-16T05:04:28;14.40;;;5.67;;
19163;SDS011;9714;51.208;4.242;2023-07-16T05:06:55;15.97;;;5.70;;
19163;SDS011;9714;51.208;4.242;2023-07-16T05:09:23;20.60;;;6.30;;
19163;SDS011;9714;51.208;4.242;2023-07-16T05:11:49;17.30;;;6.23;;
19163;SDS011;9714;51.208;4.242;2023-07-16T05:14:18;19.10;;;6.63;;
19163;SDS011;9714;51.208;4.242;2023-07-16T05:16:45;16.10;;;5.87;;
19163;SDS011;9714;51.208;4.242;2023-07-16T05:19:12;24.07;;;6.90;;
19163;SDS011;9714;51.208;4.242;2023-07-16T05:24:33;20.50;;;6.63;;
19163;SDS011;9714;51.208;4.242;2023-07-16T05:27:03;17.60;;;5.77;;
19163;SDS011;9714;51.208;4.242;2023-07-16T05:29:32;26.47;;;6.33;;
19163;SDS011;9714;51.208;4.242;2023-07-16T05:31:59;20.17;;;6.63;;
19163;SDS011;9714;51.208;4.242;2023-07-16T05:34:27;14.03;;;6.00;;
19163;SDS011;9714;51.208;4.242;2023-07-16T05:36:54;22.03;;;7.13;;
19163;SDS011;9714;51.208;4.242;2023-07-16T05:39:22;16.27;;;6.03;;
19163;SDS011;9714;51.208;4.242;2023-07-16T05:41:49;21.70;;;6.03;;
19163;SDS011;9714;51.208;4.242;2023-07-16T05:44:16;16.83;;;5.80;;
19163;SDS011;9714;51.208;4.242;2023-07-16T05:46:44;20.10;;;6.97;;
19163;SDS011;9714;51.208;4.242;2023-07-16T05:49:11;19.47;;;6.87;;
19163;SDS011;9714;51.208;4.242;2023-07-16T05:51:38;22.83;;;7.33;;
19163;SDS011;9714;51.208;4.242;2023-07-16T05:54:05;20.33;;;6.63;;
19163;SDS011;9714;51.208;4.242;2023-07-16T05:56:32;18.83;;;7.20;;
19163;SDS011;9714;51.208;4.242;2023-07-16T05:59:01;18.33;;;6.53;;
19163;SDS011;9714;51.208;4.242;2023-07-16T06:01:28;17.97;;;6.60;;
19163;SDS011;9714;51.208;4.242;2023-07-16T06:03:57;20.07;;;7.03;;
19163;SDS011;9714;51.208;4.242;2023-07-16T06:06:28;20.83;;;6.67;;
19163;SDS011;9714;51.208;4.242;2023-07-16T06:08:56;18.70;;;7.63;;
19163;SDS011;9714;51.208;4.242;2023-07-16T06:11:23;22.07;;;6.87;;
19163;SDS011;9714;51.208;4.242;2023-07-16T06:13:52;16.00;;;6.57;;
19163;SDS011;9714;51.208;4.242;2023-07-16T06:16:19;20.47;;;7.17;;
19163;SDS011;9714;51.208;4.242;2023-07-16T06:18:46;20.67;;;6.37;;
19163;SDS011;9714;51.208;4.242;2023-07-16T06:21:15;24.83;;;7.27;;
19163;SDS011;9714;51.208;4.242;2023-07-16T06:23:42;21.03;;;7.00;;
19163;SDS011;9714;51.208;4.242;2023-07-16T06:26:14;16.90;;;6.43;;
19163;SDS011;9714;51.208;4.242;2023-07-16T06:28:45;21.27;;;7.40;;
19163;SDS011;9714;51.208;4.242;2023-07-16T06:31:15;28.60;;;6.77;;
19163;SDS011;9714;51.208;4.242;2023-07-16T06:33:42;22.50;;;6.70;;
19163;SDS011;9714;51.208;4.242;2023-07-16T06:36:11;17.63;;;6.63;;
19163;SDS011;9714;51.208;4.242;2023-07-16T06:38:45;22.07;;;6.47;;
19163;SDS011;9714;51.208;4.242;2023-07-16T06:41:14;21.47;;;7.20;;
19163;SDS011;9714;51.208;4.242;2023-07-16T06:43:42;19.67;;;7.00;;
19163;SDS011;9714;51.208;4.242;2023-07-16T06:46:09;25.70;;;6.80;;
19163;SDS011;9714;51.208;4.242;2023-07-16T06:48:37;17.60;;;6.00;;
19163;SDS011;9714;51.208;4.242;2023-07-16T06:51:09;16.30;;;6.10;;
19163;SDS011;9714;51.208;4.242;2023-07-16T06:53:41;26.97;;;6.23;;
19163;SDS011;9714;51.208;4.242;2023-07-16T06:56:13;22.73;;;6.80;;
19163;SDS011;9714;51.208;4.242;2023-07-16T06:58:43;14.37;;;6.23;;
19163;SDS011;9714;51.208;4.242;2023-07-16T07:01:14;18.57;;;7.77;;
19163;SDS011;9714;51.208;4.242;2023-07-16T07:03:43;21.10;;;6.47;;
19163;SDS011;9714;51.208;4.242;2023-07-16T07:06:44;20.77;;;7.50;;
19163;SDS011;9714;51.208;4.242;2023-07-16T07:37:23;25.63;;;6.95;;
19163;SDS011;9714;51.208;4.242;2023-07-16T07:39:52;17.00;;;5.53;;
19163;SDS011;9714;51.208;4.242;2023-07-16T07:42:19;22.73;;;7.63;;
19163;SDS011;9714;51.208;4.242;2023-07-16T07:44:47;17.43;;;6.03;;
19163;SDS011;9714;51.208;4.242;2023-07-16T07:47:15;17.83;;;6.53;;
19163;SDS011;9714;51.208;4.242;2023-07-16T07:49:44;15.65;;;6.20;;
19163;SDS011;9714;51.208;4.242;2023-07-16T07:52:11;17.58;;;5.63;;
19163;SDS011;9714;51.208;4.242;2023-07-16T07:54:38;18.27;;;5.60;;
19163;SDS011;9714;51.208;4.242;2023-07-16T07:57:06;21.60;;;6.50;;
19163;SDS011;9714;51.208;4.242;2023-07-16T07:59:33;20.55;;;5.72;;
19163;SDS011;9714;51.208;4.242;2023-07-16T08:02:00;17.70;;;5.63;;
19163;SDS011;9714;51.208;4.242;2023-07-16T08:04:29;15.98;;;5.80;;
19163;SDS011;9714;51.208;4.242;2023-07-16T08:06:58;18.38;;;5.85;;
19163;SDS011;9714;51.208;4.242;2023-07-16T08:09:25;16.48;;;5.57;;
19163;SDS011;9714;51.208;4.242;2023-07-16T08:11:52;21.75;;;7.00;;
19163;SDS011;9714;51.208;4.242;2023-07-16T08:14:20;18.23;;;5.32;;
19163;SDS011;9714;51.208;4.242;2023-07-16T08:16:47;22.65;;;6.40;;
19163;SDS011;9714;51.208;4.242;2023-07-16T08:19:14;16.50;;;5.65;;
19163;SDS011;9714;51.208;4.242;2023-07-16T08:21:43;20.00;;;7.05;;
19163;SDS011;9714;51.208;4.242;2023-07-16T08:24:11;18.40;;;6.47;;
19163;SDS011;9714;51.208;4.242;2023-07-16T08:26:40;21.17;;;6.88;;
19163;SDS011;9714;51.208;4.242;2023-07-16T08:29:07;16.02;;;6.00;;
19163;SDS011;9714;51.208;4.242;2023-07-16T08:31:34;17.65;;;5.57;;
19163;SDS011;9714;51.208;4.242;2023-07-16T08:34:01;19.95;;;5.65;;
19163;SDS011;9714;51.208;4.242;2023-07-16T08:36:28;19.15;;;6.00;;
19163;SDS011;9714;51.208;4.242;2023-07-16T08:38:55;17.38;;;5.93;;
19163;SDS011;9714;51.208;4.242;2023-07-16T08:41:24;16.50;;;5.75;;
19163;SDS011;9714;51.208;4.242;2023-07-16T08:43:51;17.65;;;5.63;;
19163;SDS011;9714;51.208;4.242;2023-07-16T08:46:19;15.77;;;5.72;;
19163;SDS011;9714;51.208;4.242;2023-07-16T08:48:46;22.90;;;6.13;;
19163;SDS011;9714;51.208;4.242;2023-07-16T08:51:15;14.63;;;5.07;;
19163;SDS011;9714;51.208;4.242;2023-07-16T08:53:44;18.15;;;5.53;;
19163;SDS011;9714;51.208;4.242;2023-07-16T08:56:11;16.33;;;4.85;;
19163;SDS011;9714;51.208;4.242;2023-07-16T08:58:39;14.02;;;5.47;;
19163;SDS011;9714;51.208;4.242;2023-07-16T09:01:09;19.05;;;5.75;;
19163;SDS011;9714;51.208;4.242;2023-07-16T09:03:36;20.95;;;6.05;;
19163;SDS011;9714;51.208;4.242;2023-07-16T09:06:03;17.88;;;5.80;;
19163;SDS011;9714;51.208;4.242;2023-07-16T09:08:31;15.05;;;5.25;;
19163;SDS011;9714;51.208;4.242;2023-07-16T09:10:58;17.23;;;4.93;;
19163;SDS011;9714;51.208;4.242;2023-07-16T09:13:25;16.38;;;4.57;;
19163;SDS011;9714;51.208;4.242;2023-07-16T09:15:54;15.00;;;4.80;;
19163;SDS011;9714;51.208;4.242;2023-07-16T09:18:24;13.85;;;5.18;;
19163;SDS011;9714;51.208;4.242;2023-07-16T09:20:54;16.05;;;5.78;;
19163;SDS011;9714;51.208;4.242;2023-07-16T09:23:23;20.70;;;6.10;;
19163;SDS011;9714;51.208;4.242;2023-07-16T09:25:51;17.40;;;5.57;;
19163;SDS011;9714;51.208;4.242;2023-07-16T09:28:19;15.60;;;5.28;;
19163;SDS011;9714;51.208;4.242;2023-07-16T09:30:47;20.90;;;5.80;;
19163;SDS011;9714;51.208;4.242;2023-07-16T09:33:17;16.08;;;5.68;;
19163;SDS011;9714;51.208;4.242;2023-07-16T09:35:48;13.82;;;4.72;;
19163;SDS011;9714;51.208;4.242;2023-07-16T09:38:16;23.05;;;5.80;;
19163;SDS011;9714;51.208;4.242;2023-07-16T09:40:45;15.15;;;5.28;;
19163;SDS011;9714;51.208;4.242;2023-07-16T09:43:12;22.45;;;6.40;;
19163;SDS011;9714;51.208;4.242;2023-07-16T09:45:41;15.10;;;5.45;;
19163;SDS011;9714;51.208;4.242;2023-07-16T09:48:09;17.60;;;5.50;;
19163;SDS011;9714;51.208;4.242;2023-07-16T09:50:40;30.55;;;6.53;;
19163;SDS011;9714;51.208;4.242;2023-07-16T09:53:15;14.52;;;5.70;;
19163;SDS011;9714;51.208;4.242;2023-07-16T09:55:44;11.27;;;4.72;;
19163;SDS011;9714;51.208;4.242;2023-07-16T09:58:12;14.52;;;5.10;;
19163;SDS011;9714;51.208;4.242;2023-07-16T10:00:40;18.17;;;5.18;;
19163;SDS011;9714;51.208;4.242;2023-07-16T10:03:08;18.38;;;5.07;;
19163;SDS011;9714;51.208;4.242;2023-07-16T10:05:37;15.77;;;5.05;;
19163;SDS011;9714;51.208;4.242;2023-07-16T10:08:14;17.52;;;5.65;;
19163;SDS011;9714;51.208;4.242;2023-07-16T10:10:43;17.92;;;5.60;;
19163;SDS011;9714;51.208;4.242;2023-07-16T10:13:14;14.55;;;6.07;;
19163;SDS011;9714;51.208;4.242;2023-07-16T10:15:51;18.08;;;6.10;;
19163;SDS011;9714;51.208;4.242;2023-07-16T10:18:23;15.67;;;5.70;;
19163;SDS011;9714;51.208;4.242;2023-07-16T10:20:52;15.80;;;6.35;;
19163;SDS011;9714;51.208;4.242;2023-07-16T10:23:22;16.85;;;6.15;;
19163;SDS011;9714;51.208;4.242;2023-07-16T10:25:58;15.68;;;5.57;;
19163;SDS011;9714;51.208;4.242;2023-07-16T10:28:26;13.48;;;5.72;;
19163;SDS011;9714;51.208;4.242;2023-07-16T10:30:53;19.65;;;5.65;;
19163;SDS011;9714;51.208;4.242;2023-07-16T10:33:20;14.32;;;5.03;;
19163;SDS011;9714;51.208;4.242;2023-07-16T10:35:47;18.58;;;4.78;;
19163;SDS011;9714;51.208;4.242;2023-07-16T10:38:14;19.73;;;5.60;;
19163;SDS011;9714;51.208;4.242;2023-07-16T10:40:43;17.85;;;5.55;;
19163;SDS011;9714;51.208;4.242;2023-07-16T10:43:13;13.55;;;4.68;;
19163;SDS011;9714;51.208;4.242;2023-07-16T10:45:41;13.55;;;4.30;;
19163;SDS011;9714;51.208;4.242;2023-07-16T10:48:11;10.73;;;3.35;;
19163;SDS011;9714;51.208;4.242;2023-07-16T10:50:38;10.65;;;3.70;;
19163;SDS011;9714;51.208;4.242;2023-07-16T10:53:11;14.90;;;3.20;;
19163;SDS011;9714;51.208;4.242;2023-07-16T10:55:38;10.68;;;3.42;;
19163;SDS011;9714;51.208;4.242;2023-07-16T10:58:09;11.70;;;3.50;;
19163;SDS011;9714;51.208;4.242;2023-07-16T11:00:38;10.57;;;2.97;;
19163;SDS011;9714;51.208;4.242;2023-07-16T11:03:06;9.63;;;3.15;;
19163;SDS011;9714;51.208;4.242;2023-07-16T11:05:33;9.82;;;3.30;;
19163;SDS011;9714;51.208;4.242;2023-07-16T11:08:02;11.57;;;3.40;;
19163;SDS011;9714;51.208;4.242;2023-07-16T11:10:29;8.40;;;2.83;;
19163;SDS011;9714;51.208;4.242;2023-07-16T11:12:56;9.40;;;2.83;;
19163;SDS011;9714;51.208;4.242;2023-07-16T11:15:30;9.50;;;3.08;;
19163;SDS011;9714;51.208;4.242;2023-07-16T11:17:58;15.43;;;2.80;;
19163;SDS011;9714;51.208;4.242;2023-07-16T11:20:26;8.60;;;2.55;;
19163;SDS011;9714;51.208;4.242;2023-07-16T11:22:54;9.48;;;2.90;;
19163;SDS011;9714;51.208;4.242;2023-07-16T11:25:24;7.95;;;2.28;;
19163;SDS011;9714;51.208;4.242;2023-07-16T11:27:53;9.95;;;2.60;;
19163;SDS011;9714;51.208;4.242;2023-07-16T11:30:24;7.75;;;2.10;;
19163;SDS011;9714;51.208;4.242;2023-07-16T11:32:52;11.55;;;3.00;;
19163;SDS011;9714;51.208;4.242;2023-07-16T11:35:22;10.95;;;2.40;;
19163;SDS011;9714;51.208;4.242;2023-07-16T11:37:49;6.97;;;2.30;;
19163;SDS011;9714;51.208;4.242;2023-07-16T11:40:16;8.20;;;2.15;;
19163;SDS011;9714;51.208;4.242;2023-07-16T11:42:45;11.90;;;2.42;;
19163;SDS011;9714;51.208;4.242;2023-07-16T11:45:16;6.60;;;1.80;;
19163;SDS011;9714;51.208;4.242;2023-07-16T11:47:46;8.38;;;2.28;;
19163;SDS011;9714;51.208;4.242;2023-07-16T11:50:13;7.18;;;2.17;;
19163;SDS011;9714;51.208;4.242;2023-07-16T11:52:40;7.78;;;2.17;;
19163;SDS011;9714;51.208;4.242;2023-07-16T11:55:07;8.32;;;2.20;;
19163;SDS011;9714;51.208;4.242;2023-07-16T11:57:34;6.68;;;1.80;;
19163;SDS011;9714;51.208;4.242;2023-07-16T12:00:02;12.98;;;2.35;;
19163;SDS011;9714;51.208;4.242;2023-07-16T12:02:30;6.47;;;1.77;;
19163;SDS011;9714;51.208;4.242;2023-07-16T12:04:59;8.80;;;1.85;;
19163;SDS011;9714;51.208;4.242;2023-07-16T12:07:33;8.20;;;2.30;;
19163;SDS011;9714;51.208;4.242;2023-07-16T12:10:01;12.30;;;2.45;;
19163;SDS011;9714;51.208;4.242;2023-07-16T12:12:28;9.07;;;2.20;;
19163;SDS011;9714;51.208;4.242;2023-07-16T12:14:56;11.93;;;2.20;;
19163;SDS011;9714;51.208;4.242;2023-07-16T12:17:23;10.05;;;2.47;;
19163;SDS011;9714;51.208;4.242;2023-07-16T12:19:50;6.10;;;2.08;;
19163;SDS011;9714;51.208;4.242;2023-07-16T12:22:18;7.93;;;2.20;;
19163;SDS011;9714;51.208;4.242;2023-07-16T12:24:45;9.98;;;2.78;;
19163;SDS011;9714;51.208;4.242;2023-07-16T12:27:14;9.32;;;2.95;;
19163;SDS011;9714;51.208;4.242;2023-07-16T12:29:42;13.85;;;3.08;;
19163;SDS011;9714;51.208;4.242;2023-07-16T12:32:09;10.05;;;2.53;;
19163;SDS011;9714;51.208;4.242;2023-07-16T12:34:36;10.50;;;2.55;;
19163;SDS011;9714;51.208;4.242;2023-07-16T12:37:04;8.70;;;2.80;;
19163;SDS011;9714;51.208;4.242;2023-07-16T12:39:34;10.43;;;3.08;;
19163;SDS011;9714;51.208;4.242;2023-07-16T12:42:02;11.63;;;3.17;;
19163;SDS011;9714;51.208;4.242;2023-07-16T12:44:30;10.02;;;2.92;;
19163;SDS011;9714;51.208;4.242;2023-07-16T12:46:57;12.48;;;3.00;;
19163;SDS011;9714;51.208;4.242;2023-07-16T12:49:24;10.18;;;3.10;;
19163;SDS011;9714;51.208;4.242;2023-07-16T12:51:51;12.40;;;3.10;;
19163;SDS011;9714;51.208;4.242;2023-07-16T12:54:17;13.02;;;3.78;;
19163;SDS011;9714;51.208;4.242;2023-07-16T12:56:47;11.77;;;3.15;;
19163;SDS011;9714;51.208;4.242;2023-07-16T12:59:14;9.95;;;3.30;;
19163;SDS011;9714;51.208;4.242;2023-07-16T13:01:43;9.73;;;3.10;;
19163;SDS011;9714;51.208;4.242;2023-07-16T13:06:39;9.05;;;2.95;;
19163;SDS011;9714;51.208;4.242;2023-07-16T13:09:07;10.00;;;3.28;;
19163;SDS011;9714;51.208;4.242;2023-07-16T13:11:34;10.45;;;3.03;;
19163;SDS011;9714;51.208;4.242;2023-07-16T13:14:04;7.68;;;2.50;;
19163;SDS011;9714;51.208;4.242;2023-07-16T13:16:31;12.95;;;3.13;;
19163;SDS011;9714;51.208;4.242;2023-07-16T13:18:59;8.18;;;2.55;;
19163;SDS011;9714;51.208;4.242;2023-07-16T13:21:26;9.63;;;3.00;;
19163;SDS011;9714;51.208;4.242;2023-07-16T13:23:52;10.38;;;3.00;;
19163;SDS011;9714;51.208;4.242;2023-07-16T13:26:20;6.78;;;2.55;;
19163;SDS011;9714;51.208;4.242;2023-07-16T13:28:47;10.15;;;2.55;;
19163;SDS011;9714;51.208;4.242;2023-07-16T13:31:16;15.60;;;2.42;;
19163;SDS011;9714;51.208;4.242;2023-07-16T13:33:43;10.57;;;2.70;;
19163;SDS011;9714;51.208;4.242;2023-07-16T13:36:10;8.52;;;3.05;;
19163;SDS011;9714;51.208;4.242;2023-07-16T13:38:37;8.35;;;3.13;;
19163;SDS011;9714;51.208;4.242;2023-07-16T13:41:04;9.32;;;2.72;;
19163;SDS011;9714;51.208;4.242;2023-07-16T13:43:31;11.32;;;2.45;;
19163;SDS011;9714;51.208;4.242;2023-07-16T13:45:58;11.63;;;3.10;;
19163;SDS011;9714;51.208;4.242;2023-07-16T13:48:26;12.80;;;3.42;;
19163;SDS011;9714;51.208;4.242;2023-07-16T13:50:53;11.70;;;3.40;;
19163;SDS011;9714;51.208;4.242;2023-07-16T13:53:20;10.18;;;3.13;;
19163;SDS011;9714;51.208;4.242;2023-07-16T13:55:47;13.48;;;3.58;;
19163;SDS011;9714;51.208;4.242;2023-07-16T13:58:14;8.77;;;2.80;;
19163;SDS011;9714;51.208;4.242;2023-07-16T14:00:41;10.43;;;3.13;;
19163;SDS011;9714;51.208;4.242;2023-07-16T14:03:08;9.80;;;2.83;;
19163;SDS011;9714;51.208;4.242;2023-07-16T14:05:36;10.48;;;2.88;;
19163;SDS011;9714;51.208;4.242;2023-07-16T14:08:05;9.13;;;2.58;;
19163;SDS011;9714;51.208;4.242;2023-07-16T14:10:33;6.57;;;2.03;;
19163;SDS011;9714;51.208;4.242;2023-07-16T14:13:00;8.82;;;2.13;;
19163;SDS011;9714;51.208;4.242;2023-07-16T14:15:27;7.38;;;1.80;;
19163;SDS011;9714;51.208;4.242;2023-07-16T14:17:54;11.23;;;2.20;;
19163;SDS011;9714;51.208;4.242;2023-07-16T14:20:21;5.63;;;1.80;;
19163;SDS011;9714;51.208;4.242;2023-07-16T14:22:50;7.60;;;2.22;;
19163;SDS011;9714;51.208;4.242;2023-07-16T14:25:17;11.05;;;2.35;;
19163;SDS011;9714;51.208;4.242;2023-07-16T14:27:44;8.07;;;2.30;;
19163;SDS011;9714;51.208;4.242;2023-07-16T14:30:13;8.15;;;2.28;;
19163;SDS011;9714;51.208;4.242;2023-07-16T14:32:39;8.63;;;2.13;;
19163;SDS011;9714;51.208;4.242;2023-07-16T14:35:08;7.03;;;2.10;;
19163;SDS011;9714;51.208;4.242;2023-07-16T14:37:36;6.78;;;1.40;;
19163;SDS011;9714;51.208;4.242;2023-07-16T14:40:05;6.63;;;1.92;;
19163;SDS011;9714;51.208;4.242;2023-07-16T14:42:33;6.60;;;1.80;;
19163;SDS011;9714;51.208;4.242;2023-07-16T14:45:01;6.40;;;1.80;;
19163;SDS011;9714;51.208;4.242;2023-07-16T14:47:29;5.65;;;1.75;;
19163;SDS011;9714;51.208;4.242;2023-07-16T14:49:57;6.22;;;1.85;;
19163;SDS011;9714;51.208;4.242;2023-07-16T14:52:24;8.00;;;1.90;;
19163;SDS011;9714;51.208;4.242;2023-07-16T14:54:51;5.93;;;1.90;;
19163;SDS011;9714;51.208;4.242;2023-07-16T14:57:19;8.18;;;1.85;;
19163;SDS011;9714;51.208;4.242;2023-07-16T14:59:46;6.03;;;1.63;;
19163;SDS011;9714;51.208;4.242;2023-07-16T15:02:13;5.32;;;1.50;;
19163;SDS011;9714;51.208;4.242;2023-07-16T15:04:40;5.38;;;1.67;;
19163;SDS011;9714;51.208;4.242;2023-07-16T15:07:07;5.07;;;1.70;;
19163;SDS011;9714;51.208;4.242;2023-07-16T15:09:34;7.93;;;1.83;;
19163;SDS011;9714;51.208;4.242;2023-07-16T15:12:04;5.93;;;1.52;;
19163;SDS011;9714;51.208;4.242;2023-07-16T15:14:33;7.93;;;1.90;;
19163;SDS011;9714;51.208;4.242;2023-07-16T15:17:00;6.90;;;1.60;;
19163;SDS011;9714;51.208;4.242;2023-07-16T15:19:27;6.88;;;1.50;;
19163;SDS011;9714;51.208;4.242;2023-07-16T15:21:54;7.97;;;1.85;;
19163;SDS011;9714;51.208;4.242;2023-07-16T15:24:22;5.13;;;1.48;;
19163;SDS011;9714;51.208;4.242;2023-07-16T15:26:49;6.13;;;1.55;;
19163;SDS011;9714;51.208;4.242;2023-07-16T15:29:16;7.18;;;2.00;;